Terminal Aerodrome Forecast
Issued by NWS Buffalo, NY

Home | Current Version | Previous Version | Text Only | Print | Product List | Glossary On
Versions: 1 2 3 4 5 6 7 8 9 10 11 12 13 14 15 16 17 18 19 20 21 22 23 24 25 26 27 28
000
FTUS41 KBUF 282000 AAA
TAFBUF
TAF AMD
KBUF 282052Z 2821/0118 22010KT P6SM SKC
     FM282300 VRB03KT P6SM SCT250
     FM010700 VRB03KT P6SM BKN100
     FM011000 15004KT P6SM OVC070
     FM011300 18005KT 4SM -SN OVC035
     FM011600 21005KT 2SM -SN OVC025=

USA.gov is the U.S. government's official web portal to all federal, state and local government web resources and services.